createdAt,value
2022-10-05T00:01:18.178Z,1.20
2022-10-05T00:03:44.904Z,1.50
2022-10-05T00:06:11.555Z,1.83
2022-10-05T00:08:38.292Z,1.65
2022-10-05T00:11:05.076Z,1.50
2022-10-05T00:13:31.772Z,1.23
2022-10-05T00:15:58.461Z,1.23
2022-10-05T00:18:25.116Z,1.00
2022-10-05T00:20:51.820Z,1.35
2022-10-05T00:23:18.552Z,1.42
2022-10-05T00:25:45.238Z,1.50
2022-10-05T00:28:12.074Z,1.70
2022-10-05T00:30:38.772Z,1.50
2022-10-05T00:33:05.461Z,1.30
2022-10-05T00:35:32.123Z,1.20
2022-10-05T00:37:58.859Z,1.50
2022-10-05T00:40:25.672Z,1.33
2022-10-05T00:42:52.316Z,1.33
2022-10-05T00:45:19.033Z,1.35
2022-10-05T00:47:45.712Z,1.23
2022-10-05T00:50:13.376Z,1.33
2022-10-05T00:52:40.032Z,1.15
2022-10-05T00:55:06.713Z,1.25
2022-10-05T00:57:33.906Z,1.10
2022-10-05T01:00:00.590Z,1.25
2022-10-05T01:02:27.407Z,1.20
2022-10-05T01:04:54.174Z,1.02
2022-10-05T01:07:20.812Z,1.23
2022-10-05T01:09:47.522Z,1.50
2022-10-05T01:12:14.211Z,1.00
2022-10-05T01:14:40.883Z,1.17
2022-10-05T01:17:08.433Z,1.40
2022-10-05T01:19:35.109Z,1.10
2022-10-05T01:22:01.826Z,1.17
2022-10-05T01:24:28.745Z,1.20
2022-10-05T01:26:55.380Z,1.20
2022-10-05T01:29:22.080Z,1.40
2022-10-05T01:31:48.771Z,1.30
2022-10-05T01:34:15.487Z,1.17
2022-10-05T01:36:43.557Z,1.10
2022-10-05T01:39:10.682Z,1.30
2022-10-05T01:41:37.400Z,1.23
2022-10-05T01:44:04.156Z,1.38
2022-10-05T01:46:30.824Z,1.23
2022-10-05T01:48:57.524Z,1.10
2022-10-05T01:51:24.218Z,1.35
2022-10-05T01:53:51.051Z,1.10
2022-10-05T01:56:18.800Z,1.50
2022-10-05T01:58:45.581Z,1.42
2022-10-05T02:01:12.488Z,1.20
2022-10-05T02:03:39.173Z,1.40
2022-10-05T02:06:06.225Z,1.40
2022-10-05T02:08:32.923Z,1.30
2022-10-05T02:10:59.682Z,1.50
2022-10-05T02:13:27.787Z,1.45
2022-10-05T02:15:54.599Z,1.60
2022-10-05T02:18:21.291Z,1.50
2022-10-05T02:20:48.006Z,2.13
2022-10-05T02:23:14.745Z,1.60
2022-10-05T02:25:41.495Z,1.40
2022-10-05T02:28:09.447Z,1.25
2022-10-05T02:30:36.380Z,1.83
2022-10-05T02:33:03.480Z,1.50
2022-10-05T02:35:31.299Z,1.25
2022-10-05T02:37:58.041Z,1.42
2022-10-05T02:40:25.299Z,1.67
2022-10-05T02:42:53.377Z,1.10
2022-10-05T02:45:20.415Z,1.30
2022-10-05T02:47:47.662Z,1.63
2022-10-05T02:50:14.393Z,1.80
2022-10-05T02:52:41.984Z,2.75
2022-10-05T02:55:09.281Z,1.70
2022-10-05T02:57:36.089Z,1.23
2022-10-05T03:00:04.126Z,1.42
2022-10-05T03:02:31.860Z,1.33
2022-10-05T03:04:58.577Z,1.42
2022-10-05T03:07:25.336Z,1.27
2022-10-05T03:09:52.437Z,1.30
2022-10-05T03:12:19.395Z,1.48
2022-10-05T03:14:48.158Z,1.30
2022-10-05T03:17:15.069Z,1.65
2022-10-05T03:19:41.950Z,1.70
2022-10-05T03:22:08.720Z,1.40
2022-10-05T03:24:37.952Z,1.52
2022-10-05T03:27:06.011Z,1.50
2022-10-05T03:29:33.278Z,1.42
2022-10-05T03:32:00.203Z,1.25
2022-10-05T03:34:27.127Z,1.50
2022-10-05T03:36:54.524Z,1.23
2022-10-05T03:39:21.216Z,1.85
2022-10-05T03:41:47.887Z,1.30
2022-10-05T03:44:15.205Z,1.40
2022-10-05T03:46:41.868Z,1.70
2022-10-05T03:49:08.912Z,1.63
2022-10-05T03:51:35.733Z,1.45
2022-10-05T03:54:02.452Z,1.45
2022-10-05T03:56:29.193Z,1.30
2022-10-05T03:58:55.894Z,1.50
2022-10-05T04:01:23.523Z,1.60
2022-10-05T04:03:50.621Z,1.67
2022-10-05T04:06:17.533Z,1.77
2022-10-05T04:08:47.783Z,2.08
2022-10-05T04:11:15.165Z,1.85
2022-10-05T04:13:41.960Z,1.70
2022-10-05T04:16:09.253Z,2.20
2022-10-05T04:18:36.052Z,2.03
2022-10-05T04:21:04.085Z,1.92
2022-10-05T04:23:30.805Z,1.50
2022-10-05T04:25:57.820Z,1.80
2022-10-05T04:28:29.608Z,1.95
2022-10-05T04:30:59.149Z,1.83
2022-10-05T04:33:25.809Z,1.70
2022-10-05T04:35:52.616Z,1.50
2022-10-05T04:38:20.289Z,1.92
2022-10-05T04:40:48.027Z,1.77
2022-10-05T04:43:15.385Z,1.52
2022-10-05T04:45:42.326Z,1.42
2022-10-05T04:48:09.019Z,1.73
2022-10-05T04:50:35.705Z,1.80
2022-10-05T04:53:07.076Z,1.60
2022-10-05T04:55:34.252Z,1.40
2022-10-05T04:58:02.288Z,1.73
2022-10-05T05:00:29.130Z,1.50
2022-10-05T05:02:55.870Z,1.70
2022-10-05T05:05:22.633Z,1.83
2022-10-05T05:07:51.737Z,2.05
2022-10-05T05:10:18.555Z,1.55
2022-10-05T05:12:45.254Z,1.58
2022-10-05T05:15:12.009Z,1.38
2022-10-05T05:17:38.760Z,1.75
2022-10-05T05:20:05.640Z,1.27
2022-10-05T05:22:32.300Z,1.50
2022-10-05T05:24:59.284Z,1.75
2022-10-05T05:27:26.242Z,1.50
2022-10-05T05:29:53.417Z,1.50
2022-10-05T05:32:20.538Z,1.67
2022-10-05T05:34:48.324Z,1.58
2022-10-05T05:37:15.148Z,1.50
2022-10-05T05:39:41.804Z,1.60
2022-10-05T05:42:08.507Z,1.75
2022-10-05T05:44:38.592Z,1.52
2022-10-05T05:47:06.013Z,1.60
2022-10-05T05:49:38.356Z,1.70
2022-10-05T05:52:05.121Z,1.70
2022-10-05T05:54:31.861Z,1.63
2022-10-05T05:56:58.826Z,1.67
2022-10-05T05:59:25.619Z,1.98
2022-10-05T06:01:52.677Z,1.52
2022-10-05T06:04:19.544Z,1.60
2022-10-05T06:06:46.732Z,1.85
2022-10-05T06:09:13.741Z,2.00
2022-10-05T06:11:44.711Z,1.70
2022-10-05T06:14:12.063Z,1.95
2022-10-05T06:16:39.655Z,1.95
2022-10-05T06:19:06.927Z,1.92
2022-10-05T06:21:33.617Z,1.83
2022-10-05T06:24:00.366Z,1.65
2022-10-05T06:26:27.366Z,1.77
2022-10-05T06:28:54.083Z,1.92
2022-10-05T06:31:21.283Z,1.40
2022-10-05T06:33:52.284Z,1.70
2022-10-05T06:36:24.758Z,1.90
2022-10-05T06:38:51.439Z,1.75
2022-10-05T06:41:18.762Z,1.55
2022-10-05T06:43:45.486Z,1.50
2022-10-05T06:46:32.734Z,1.50
2022-10-05T06:49:16.804Z,1.85
2022-10-05T06:52:06.057Z,1.48
2022-10-05T06:54:38.108Z,1.33
2022-10-05T06:57:04.946Z,1.60
2022-10-05T06:59:31.665Z,1.33
2022-10-05T07:01:59.076Z,1.48
2022-10-05T07:04:26.705Z,1.50
2022-10-05T07:06:53.876Z,1.27
2022-10-05T07:09:21.364Z,2.03
2022-10-05T07:11:54.666Z,1.77
2022-10-05T07:14:23.943Z,1.40
2022-10-05T07:16:50.700Z,1.30
2022-10-05T07:19:17.485Z,1.40
2022-10-05T07:21:44.375Z,1.23
2022-10-05T07:24:11.482Z,1.60
2022-10-05T07:26:38.323Z,1.10
2022-10-05T07:29:05.161Z,1.50
2022-10-05T07:31:32.248Z,1.20
2022-10-05T07:33:59.083Z,1.23
2022-10-05T07:36:44.915Z,1.58
2022-10-05T07:39:12.106Z,1.30
2022-10-05T07:41:40.187Z,1.73
2022-10-05T07:44:12.422Z,1.42
2022-10-05T07:46:41.061Z,1.60
2022-10-05T07:49:07.732Z,1.15
2022-10-05T07:51:34.478Z,1.55
2022-10-05T07:54:01.168Z,1.33
2022-10-05T07:56:28.034Z,1.40
2022-10-05T07:58:54.918Z,1.58
2022-10-05T08:01:22.741Z,1.42
2022-10-05T08:03:53.699Z,1.45
2022-10-05T08:06:21.351Z,1.52
2022-10-05T08:08:48.021Z,1.67
2022-10-05T08:11:14.744Z,1.58
2022-10-05T08:13:41.415Z,1.48
2022-10-05T08:16:10.072Z,1.75
2022-10-05T08:18:36.768Z,1.83
2022-10-05T08:21:06.307Z,1.90
2022-10-05T08:23:33.160Z,1.60
2022-10-05T08:25:59.829Z,1.70
2022-10-05T08:28:26.602Z,3.55
2022-10-05T08:30:53.408Z,2.15
2022-10-05T08:33:20.769Z,2.35
2022-10-05T08:35:47.978Z,6.53
2022-10-05T08:38:16.532Z,2.10
2022-10-05T08:40:43.226Z,2.00
2022-10-05T08:43:09.905Z,1.70
2022-10-05T08:45:36.643Z,4.05
2022-10-05T08:48:03.416Z,1.95
2022-10-05T08:50:31.215Z,9.00
2022-10-05T08:52:57.952Z,1.80
2022-10-05T08:55:24.607Z,1.83
2022-10-05T08:57:51.345Z,1.90
2022-10-05T09:00:17.987Z,2.00
2022-10-05T09:02:44.825Z,1.90
2022-10-05T09:05:11.548Z,1.65
2022-10-05T09:07:38.267Z,2.05
2022-10-05T09:10:05.017Z,1.70
2022-10-05T09:12:31.662Z,1.63
2022-10-05T09:15:20.950Z,1.95
2022-10-05T09:17:45.714Z,1.77
2022-10-05T09:20:12.508Z,2.20
2022-10-05T09:22:39.277Z,2.22
2022-10-05T09:25:05.974Z,1.70
2022-10-05T09:27:32.650Z,1.60
2022-10-05T09:29:59.307Z,2.33
2022-10-05T09:32:27.921Z,1.67
2022-10-05T09:34:55.677Z,1.80
2022-10-05T09:37:22.497Z,1.63
2022-10-05T09:39:49.152Z,1.40
2022-10-05T09:42:15.812Z,1.77
2022-10-05T09:44:42.486Z,2.00
2022-10-05T09:47:09.250Z,1.85
2022-10-05T09:49:35.920Z,1.60
2022-10-05T09:52:02.685Z,1.77
2022-10-05T09:54:29.372Z,1.77
2022-10-05T09:56:56.067Z,1.60
2022-10-05T09:59:22.755Z,1.85
2022-10-05T10:01:51.213Z,1.48
2022-10-05T10:04:18.327Z,2.00
2022-10-05T10:06:45.502Z,1.83
2022-10-05T10:09:12.157Z,2.50
2022-10-05T10:11:38.841Z,2.20
2022-10-05T10:14:05.575Z,1.95
2022-10-05T10:16:32.325Z,1.85
2022-10-05T10:18:59.461Z,2.00
2022-10-05T10:21:26.180Z,1.70
2022-10-05T10:23:55.116Z,2.25
2022-10-05T10:26:21.808Z,1.90
2022-10-05T10:28:48.466Z,2.28
2022-10-05T10:31:15.197Z,1.70
2022-10-05T10:33:41.946Z,2.33
2022-10-05T10:36:08.602Z,2.03
2022-10-05T10:38:35.332Z,1.80
2022-10-05T10:41:02.030Z,1.83
2022-10-05T10:43:29.503Z,2.17
2022-10-05T10:45:56.722Z,2.30
2022-10-05T10:48:23.833Z,2.17
2022-10-05T10:50:50.698Z,2.45
2022-10-05T10:53:17.353Z,2.30
2022-10-05T10:55:44.074Z,2.05
2022-10-05T10:58:15.747Z,2.50
2022-10-05T11:00:43.321Z,2.60
2022-10-05T11:03:10.038Z,2.35
2022-10-05T11:05:36.841Z,2.30
2022-10-05T11:08:03.540Z,2.17
2022-10-05T11:10:30.248Z,2.30
2022-10-05T11:12:58.052Z,2.10
2022-10-05T11:15:24.955Z,2.10
2022-10-05T11:17:51.602Z,2.33
2022-10-05T11:20:18.310Z,2.03
2022-10-05T11:22:45.085Z,2.20
2022-10-05T11:25:11.845Z,2.58
2022-10-05T11:27:38.527Z,1.98
2022-10-05T11:30:05.295Z,2.53
2022-10-05T11:32:31.996Z,2.83
2022-10-05T11:34:58.729Z,1.90
2022-10-05T11:37:25.467Z,2.35
2022-10-05T11:39:52.191Z,2.15
2022-10-05T11:42:18.835Z,1.80
2022-10-05T11:44:45.527Z,1.95
2022-10-05T11:47:12.204Z,2.00
2022-10-05T11:49:38.865Z,1.83
2022-10-05T11:52:06.421Z,1.95
2022-10-05T11:54:52.041Z,2.00
2022-10-05T11:57:19.938Z,2.03
2022-10-05T11:59:46.610Z,2.20
2022-10-05T12:02:14.177Z,2.20
2022-10-05T12:04:40.886Z,1.85
2022-10-05T12:07:08.117Z,1.88
2022-10-05T12:09:34.818Z,2.00
2022-10-05T12:12:01.510Z,2.10
2022-10-05T12:14:28.174Z,1.55
2022-10-05T12:16:55.106Z,1.45
2022-10-05T12:19:23.967Z,1.40
2022-10-05T12:21:50.723Z,1.65
2022-10-05T12:24:17.422Z,1.58
2022-10-05T12:26:44.827Z,1.45
2022-10-05T12:29:11.502Z,1.45
2022-10-05T12:31:38.407Z,1.60
2022-10-05T12:34:05.171Z,1.67
2022-10-05T12:36:46.318Z,1.58
2022-10-05T12:39:18.829Z,1.60
2022-10-05T12:41:45.565Z,1.70
2022-10-05T12:44:12.303Z,1.60
2022-10-05T12:46:39.705Z,1.42
2022-10-05T12:49:06.407Z,1.35
2022-10-05T12:51:33.173Z,1.27
2022-10-05T12:53:59.837Z,1.50
2022-10-05T12:56:27.076Z,1.75
2022-10-05T12:58:53.798Z,1.63
2022-10-05T13:01:20.518Z,1.50
2022-10-05T13:03:47.371Z,1.70
2022-10-05T13:06:14.572Z,2.00
2022-10-05T13:08:41.603Z,2.25
2022-10-05T13:11:12.715Z,2.30
2022-10-05T13:13:41.641Z,2.40
2022-10-05T13:16:08.411Z,2.83
2022-10-05T13:18:35.064Z,2.70
2022-10-05T13:21:04.007Z,2.10
2022-10-05T13:23:31.431Z,2.72
2022-10-05T13:25:58.109Z,2.95
2022-10-05T13:28:25.998Z,2.97
2022-10-05T13:30:52.789Z,3.60
2022-10-05T13:33:19.484Z,3.33
2022-10-05T13:35:46.243Z,2.90
2022-10-05T13:38:12.959Z,3.13
2022-10-05T13:40:39.797Z,3.60
2022-10-05T13:43:06.786Z,3.25
2022-10-05T13:45:33.875Z,3.15
2022-10-05T13:48:00.718Z,2.47
2022-10-05T13:50:29.738Z,3.05
2022-10-05T13:52:59.850Z,3.17
2022-10-05T13:55:26.521Z,2.42
2022-10-05T13:57:53.386Z,2.60
2022-10-05T14:00:26.407Z,2.47
2022-10-05T14:02:54.103Z,2.95
2022-10-05T14:05:21.003Z,1.83
2022-10-05T14:07:47.698Z,1.90
2022-10-05T14:10:14.521Z,1.45
2022-10-05T14:12:41.324Z,1.85
2022-10-05T14:15:08.013Z,1.48
2022-10-05T14:17:34.719Z,0.93
2022-10-05T14:20:01.590Z,0.55
2022-10-05T14:22:29.313Z,0.60
2022-10-05T14:24:56.027Z,0.77
2022-10-05T14:27:22.782Z,0.60
2022-10-05T14:29:49.498Z,0.80
2022-10-05T14:32:16.222Z,0.60
2022-10-05T14:34:42.987Z,0.70
2022-10-05T14:37:10.143Z,0.60
2022-10-05T14:39:36.824Z,0.80
2022-10-05T14:42:03.532Z,0.70
2022-10-05T14:44:30.274Z,0.63
2022-10-05T14:46:58.868Z,0.60
2022-10-05T14:49:25.859Z,0.90
2022-10-05T14:51:53.431Z,0.70
2022-10-05T14:54:20.192Z,0.70
2022-10-05T14:56:47.390Z,0.63
2022-10-05T14:59:14.301Z,0.70
2022-10-05T15:01:41.025Z,0.70
2022-10-05T15:04:07.852Z,0.50
2022-10-05T15:06:34.536Z,0.80
2022-10-05T15:09:01.234Z,0.68
2022-10-05T15:11:28.333Z,0.80
2022-10-05T15:13:55.015Z,0.60
2022-10-05T15:16:21.744Z,0.70
2022-10-05T15:18:51.485Z,0.68
2022-10-05T15:21:21.033Z,0.80
2022-10-05T15:23:48.019Z,0.70
2022-10-05T15:26:15.046Z,0.63
2022-10-05T15:28:41.960Z,0.63
2022-10-05T15:31:09.492Z,0.60
2022-10-05T15:33:36.238Z,0.70
2022-10-05T15:36:04.374Z,1.02
2022-10-05T15:38:31.072Z,0.60
2022-10-05T15:40:59.132Z,0.57
2022-10-05T15:43:26.479Z,0.65
2022-10-05T15:45:54.133Z,0.90
2022-10-05T15:48:21.301Z,0.60
2022-10-05T15:50:48.185Z,0.60
2022-10-05T15:53:14.877Z,0.88
2022-10-05T15:55:41.541Z,0.57
2022-10-05T15:58:08.394Z,0.70
2022-10-05T16:00:35.153Z,0.70
2022-10-05T16:03:01.798Z,0.70
2022-10-05T16:05:46.994Z,0.70
2022-10-05T16:08:49.393Z,0.70
2022-10-05T16:11:19.289Z,0.70
2022-10-05T16:13:46.082Z,0.60
2022-10-05T16:16:12.753Z,1.10
2022-10-05T16:18:39.443Z,0.88
2022-10-05T16:21:06.203Z,0.70
2022-10-05T16:23:32.877Z,0.70
2022-10-05T16:25:59.612Z,0.80
2022-10-05T16:28:29.271Z,0.68
2022-10-05T16:30:56.123Z,0.60
2022-10-05T16:33:22.830Z,0.80
2022-10-05T16:35:49.508Z,1.13
2022-10-05T16:38:16.249Z,0.80
2022-10-05T16:40:42.925Z,0.60
2022-10-05T16:43:09.626Z,0.85
2022-10-05T16:45:45.068Z,0.90
2022-10-05T16:48:12.864Z,0.75
2022-10-05T16:50:39.513Z,0.82
2022-10-05T16:53:06.227Z,1.00
2022-10-05T16:55:33.029Z,0.90
2022-10-05T16:57:59.710Z,0.90
2022-10-05T17:00:26.396Z,1.00
2022-10-05T17:02:53.218Z,0.93
2022-10-05T17:05:20.110Z,0.95
2022-10-05T17:07:46.830Z,0.90
2022-10-05T17:10:13.571Z,1.00
2022-10-05T17:12:40.280Z,1.40
2022-10-05T17:15:10.022Z,0.90
2022-10-05T17:17:36.758Z,0.82
2022-10-05T17:20:03.438Z,0.90
2022-10-05T17:22:30.323Z,1.00
2022-10-05T17:24:56.992Z,0.90
2022-10-05T17:27:23.684Z,0.80
2022-10-05T17:29:51.938Z,1.05
2022-10-05T17:32:18.651Z,0.82
2022-10-05T17:34:45.393Z,0.90
2022-10-05T17:37:12.064Z,1.08
2022-10-05T17:39:38.717Z,1.00
2022-10-05T17:42:05.426Z,0.85
2022-10-05T17:44:32.164Z,1.02
2022-10-05T17:46:58.855Z,1.08
2022-10-05T17:49:25.616Z,1.10
2022-10-05T17:52:10.818Z,1.25
2022-10-05T17:54:56.274Z,1.35
2022-10-05T17:57:22.978Z,1.05
2022-10-05T17:59:49.618Z,1.05
2022-10-05T18:02:16.395Z,1.38
2022-10-05T18:04:44.898Z,1.25
2022-10-05T18:07:11.605Z,1.55
2022-10-05T18:09:38.370Z,1.40
2022-10-05T18:12:06.151Z,1.08
2022-10-05T18:14:32.798Z,1.30
2022-10-05T18:16:59.753Z,1.45
2022-10-05T18:19:26.479Z,1.40
2022-10-05T18:21:54.876Z,1.08
2022-10-05T18:24:21.634Z,1.85
2022-10-05T18:26:48.467Z,1.67
2022-10-05T18:29:15.163Z,1.52
2022-10-05T18:31:41.903Z,1.27
2022-10-05T18:34:08.994Z,1.30
2022-10-05T18:36:38.019Z,1.10
2022-10-05T18:39:05.043Z,1.30
2022-10-05T18:41:31.913Z,1.30
2022-10-05T18:43:58.598Z,1.23
2022-10-05T18:46:25.443Z,1.35
2022-10-05T18:48:52.229Z,1.40
2022-10-05T18:51:18.949Z,1.60
2022-10-05T18:53:45.802Z,1.40
2022-10-05T18:56:12.452Z,1.50
2022-10-05T18:58:39.463Z,1.70
2022-10-05T19:01:06.173Z,1.85
2022-10-05T19:03:32.886Z,1.60
2022-10-05T19:05:59.578Z,1.60
2022-10-05T19:08:26.455Z,1.45
2022-10-05T19:10:54.522Z,1.50
2022-10-05T19:13:21.251Z,1.80
2022-10-05T19:15:49.094Z,1.75
2022-10-05T19:18:15.839Z,1.50
2022-10-05T19:20:42.600Z,1.70
2022-10-05T19:23:09.504Z,2.10
2022-10-05T19:25:36.708Z,1.80
2022-10-05T19:28:03.438Z,2.35
2022-10-05T19:30:30.149Z,2.13
2022-10-05T19:32:56.830Z,2.05
2022-10-05T19:35:23.487Z,1.83
2022-10-05T19:37:50.283Z,2.03
2022-10-05T19:40:16.972Z,1.73
2022-10-05T19:42:45.104Z,2.15
2022-10-05T19:45:11.794Z,2.08
2022-10-05T19:47:41.108Z,1.67
2022-10-05T19:50:09.986Z,2.17
2022-10-05T19:52:36.651Z,1.73
2022-10-05T19:55:04.682Z,2.22
2022-10-05T19:57:31.379Z,2.53
2022-10-05T19:59:58.125Z,2.28
2022-10-05T20:02:24.835Z,2.17
2022-10-05T20:04:54.964Z,2.00
2022-10-05T20:07:22.959Z,2.88
2022-10-05T20:09:50.267Z,2.40
2022-10-05T20:12:16.975Z,2.20
2022-10-05T20:15:02.510Z,2.58
2022-10-05T20:17:47.919Z,2.67
2022-10-05T20:20:32.758Z,2.13
2022-10-05T20:22:59.485Z,3.07
2022-10-05T20:25:26.146Z,2.40
2022-10-05T20:27:53.190Z,2.42
2022-10-05T20:30:20.146Z,2.20
2022-10-05T20:32:46.857Z,2.72
2022-10-05T20:35:15.785Z,2.63
2022-10-05T20:37:42.499Z,3.00
2022-10-05T20:40:10.414Z,2.83
2022-10-05T20:42:37.167Z,3.03
2022-10-05T20:45:04.165Z,2.60
2022-10-05T20:47:30.864Z,2.65
2022-10-05T20:49:57.597Z,2.63
2022-10-05T20:52:24.343Z,3.15
2022-10-05T20:54:53.878Z,3.13
2022-10-05T20:57:24.320Z,2.88
2022-10-05T20:59:51.366Z,2.53
2022-10-05T21:02:20.869Z,2.58
2022-10-05T21:04:47.827Z,2.63
2022-10-05T21:07:15.181Z,2.95
2022-10-05T21:09:43.708Z,3.05
2022-10-05T21:12:10.454Z,2.55
2022-10-05T21:14:37.774Z,3.17
2022-10-05T21:17:04.559Z,3.00
2022-10-05T21:19:34.207Z,3.22
2022-10-05T21:22:02.457Z,3.08
2022-10-05T21:24:29.099Z,3.03
2022-10-05T21:27:00.477Z,2.90
2022-10-05T21:29:27.704Z,3.10
2022-10-05T21:31:54.597Z,3.25
2022-10-05T21:34:21.564Z,3.00
2022-10-05T21:36:48.245Z,2.63
2022-10-05T21:39:14.948Z,4.53
2022-10-05T21:41:41.624Z,3.42
2022-10-05T21:44:08.477Z,3.33
2022-10-05T21:46:35.121Z,3.33
2022-10-05T21:49:01.789Z,2.92
2022-10-05T21:51:28.560Z,2.60
2022-10-05T21:53:55.295Z,3.08
2022-10-05T21:56:21.935Z,3.13
2022-10-05T21:58:48.743Z,3.10
2022-10-05T22:01:20.170Z,3.83
2022-10-05T22:03:49.019Z,2.92
2022-10-05T22:06:15.684Z,2.22
2022-10-05T22:08:42.388Z,3.05
2022-10-05T22:11:09.051Z,3.20
2022-10-05T22:13:36.487Z,2.40
2022-10-05T22:16:05.352Z,2.97
2022-10-05T22:18:32.284Z,3.20
2022-10-05T22:20:59.022Z,2.55
2022-10-05T22:23:25.743Z,2.95
2022-10-05T22:25:52.380Z,3.05
2022-10-05T22:28:19.085Z,2.83
2022-10-05T22:30:46.122Z,2.95
2022-10-05T22:33:13.368Z,2.70
2022-10-05T22:35:40.009Z,2.75
2022-10-05T22:38:06.686Z,2.60
2022-10-05T22:40:33.346Z,3.38
2022-10-05T22:43:00.035Z,4.28
2022-10-05T22:45:32.309Z,2.85
2022-10-05T22:47:59.390Z,3.60
2022-10-05T22:50:26.033Z,2.85
2022-10-05T22:52:52.823Z,3.22
2022-10-05T22:55:19.511Z,3.15
2022-10-05T22:57:46.423Z,3.08
2022-10-05T23:00:13.123Z,2.92
2022-10-05T23:02:39.862Z,2.70
2022-10-05T23:05:06.528Z,2.90
2022-10-05T23:07:33.173Z,3.08
2022-10-05T23:09:59.885Z,3.03
2022-10-05T23:12:26.556Z,3.10
2022-10-05T23:14:53.204Z,3.17
2022-10-05T23:17:19.916Z,2.67
2022-10-05T23:19:46.561Z,2.40
2022-10-05T23:22:13.339Z,3.40
2022-10-05T23:24:40.269Z,2.30
2022-10-05T23:27:06.938Z,3.13
2022-10-05T23:29:33.695Z,2.65
2022-10-05T23:32:00.368Z,2.90
2022-10-05T23:34:27.449Z,2.60
2022-10-05T23:36:54.154Z,2.85
2022-10-05T23:39:20.824Z,2.88
2022-10-05T23:41:47.511Z,2.75
2022-10-05T23:44:14.204Z,3.10
2022-10-05T23:46:40.874Z,2.97
2022-10-05T23:49:07.544Z,2.95
2022-10-05T23:51:34.365Z,3.10
2022-10-05T23:54:01.057Z,4.05
2022-10-05T23:56:27.802Z,3.38
2022-10-05T23:58:54.482Z,3.30
